createdAt,value
2022-12-26T05:01:24.875Z,99789.42
2022-12-26T05:04:12.445Z,99785.23
2022-12-26T05:06:59.730Z,99784.56
2022-12-26T05:09:35.460Z,99788.36
2022-12-26T05:12:10.405Z,99785.86
2022-12-26T05:14:39.766Z,99784.48
2022-12-26T05:17:27.630Z,99776.88
2022-12-26T05:20:15.306Z,99774.60
2022-12-26T05:23:05.542Z,99778.77
2022-12-26T05:26:01.304Z,99763.30
2022-12-26T05:28:43.742Z,99760.19
2022-12-26T05:31:18.122Z,99767.70
2022-12-26T05:34:06.528Z,99773.45
2022-12-26T05:36:39.405Z,99768.98
2022-12-26T05:39:09.906Z,99769.23
2022-12-26T05:41:40.965Z,99766.44
2022-12-26T05:44:11.294Z,99755.25
2022-12-26T05:46:43.014Z,99753.27
2022-12-26T05:49:12.303Z,99757.33
2022-12-26T05:51:40.584Z,99762.23
2022-12-26T05:54:09.850Z,99756.81
2022-12-26T05:56:40.951Z,99748.89
2022-12-26T05:59:14.171Z,99747.55
2022-12-26T06:01:43.632Z,99743.79
2022-12-26T06:04:12.841Z,99741.11
2022-12-26T06:06:42.031Z,99732.05
2022-12-26T06:09:10.762Z,99738.14
2022-12-26T06:11:48.409Z,99732.36
2022-12-26T06:14:18.674Z,99723.63
2022-12-26T06:16:47.673Z,99722.55
2022-12-26T06:19:16.919Z,99721.34
2022-12-26T06:21:45.727Z,99713.18
2022-12-26T06:24:14.734Z,99704.63
2022-12-26T06:26:43.965Z,99703.02
2022-12-26T06:29:13.303Z,99696.99
2022-12-26T06:31:41.879Z,99690.42
2022-12-26T06:34:11.386Z,99686.44
2022-12-26T06:36:39.787Z,99687.58
2022-12-26T06:39:09.149Z,99679.70
2022-12-26T06:41:38.624Z,99683.76
2022-12-26T06:44:07.248Z,99687.30
2022-12-26T06:46:36.757Z,99689.88
2022-12-26T06:49:06.706Z,99686.35
2022-12-26T06:51:35.984Z,99680.73
2022-12-26T06:54:05.027Z,99676.12
2022-12-26T06:56:34.737Z,99671.52
2022-12-26T06:59:06.752Z,99667.95
2022-12-26T07:01:35.257Z,99658.45
2022-12-26T07:04:05.332Z,99656.04
2022-12-26T07:06:39.021Z,99648.09
2022-12-26T07:09:13.612Z,99638.33
2022-12-26T07:11:45.701Z,99635.18
2022-12-26T07:14:15.717Z,99637.70
2022-12-26T07:16:46.866Z,99641.83
2022-12-26T07:19:16.605Z,99647.48
2022-12-26T07:21:45.455Z,99647.38
2022-12-26T07:24:17.002Z,99643.89
2022-12-26T07:26:46.151Z,99634.64
2022-12-26T07:29:15.731Z,99631.27
2022-12-26T07:31:44.981Z,99625.57
2022-12-26T07:34:14.164Z,99627.69
2022-12-26T07:36:43.797Z,99632.48
2022-12-26T07:39:15.684Z,99636.61
2022-12-26T07:42:00.197Z,99632.55
2022-12-26T07:44:31.292Z,99625.04
2022-12-26T07:47:01.206Z,99625.06
2022-12-26T07:49:29.710Z,99621.58
2022-12-26T07:51:58.811Z,99617.94
2022-12-26T07:54:30.322Z,99613.14
2022-12-26T07:57:21.756Z,99615.65
2022-12-26T07:59:52.005Z,99621.20
2022-12-26T08:02:24.490Z,99614.39
2022-12-26T08:04:53.533Z,99616.08
2022-12-26T08:07:22.801Z,99616.38
2022-12-26T08:09:51.119Z,99610.04
2022-12-26T08:12:21.869Z,99608.08
2022-12-26T08:14:51.837Z,99609.08
2022-12-26T08:17:20.926Z,99605.41
2022-12-26T08:19:50.355Z,99602.92
2022-12-26T08:22:19.422Z,99597.83
2022-12-26T08:24:48.564Z,99593.61
2022-12-26T08:27:17.754Z,99591.58
2022-12-26T08:29:48.617Z,99590.61
2022-12-26T08:32:17.898Z,99587.86
2022-12-26T08:34:47.300Z,99585.38
2022-12-26T08:37:16.599Z,99578.36
2022-12-26T08:39:46.149Z,99568.77
2022-12-26T08:42:15.656Z,99571.75
2022-12-26T08:44:44.772Z,99571.89
2022-12-26T08:47:15.097Z,99570.98
2022-12-26T08:49:44.526Z,99569.67
2022-12-26T08:52:13.916Z,99566.87
2022-12-26T08:54:43.093Z,99564.45
2022-12-26T08:57:12.363Z,99566.54
2022-12-26T08:59:40.919Z,99561.30
2022-12-26T09:02:12.632Z,99557.91
2022-12-26T09:04:41.703Z,99561.77
2022-12-26T09:07:10.370Z,99558.81
2022-12-26T09:09:40.388Z,99562.48
2022-12-26T09:12:08.764Z,99563.91
2022-12-26T09:14:39.541Z,99566.46
2022-12-26T09:17:10.246Z,99560.13
2022-12-26T09:19:40.001Z,99553.82
2022-12-26T09:22:31.935Z,99552.02
2022-12-26T09:25:02.995Z,99554.88
2022-12-26T09:27:32.171Z,99554.63
2022-12-26T09:30:01.450Z,99553.39
2022-12-26T09:32:34.735Z,99555.73
2022-12-26T09:35:04.729Z,99555.24
2022-12-26T09:37:33.774Z,99552.95
2022-12-26T09:40:04.531Z,99550.05
2022-12-26T09:42:51.992Z,99549.55
2022-12-26T09:45:31.512Z,99556.23
2022-12-26T09:48:16.035Z,99552.33
2022-12-26T09:50:45.165Z,99550.84
2022-12-26T09:53:35.796Z,99549.61
2022-12-26T09:56:18.304Z,99547.20
2022-12-26T09:59:01.527Z,99539.27
2022-12-26T10:01:38.967Z,99540.71
2022-12-26T10:04:30.163Z,99534.86
2022-12-26T10:07:07.566Z,99527.86
2022-12-26T10:09:57.537Z,99523.04
2022-12-26T10:13:00.882Z,99525.64
2022-12-26T10:16:05.822Z,99525.52
2022-12-26T10:18:57.458Z,99519.86
2022-12-26T10:21:32.307Z,99517.84
2022-12-26T10:24:11.626Z,99519.89
2022-12-26T10:26:44.681Z,99517.58
2022-12-26T10:29:29.388Z,99514.46
2022-12-26T10:32:07.828Z,99514.12
2022-12-26T10:34:50.335Z,99512.23
2022-12-26T10:37:32.296Z,99512.43
2022-12-26T10:40:11.073Z,99505.00
2022-12-26T10:42:43.722Z,99507.27
2022-12-26T10:45:18.419Z,99499.98
2022-12-26T10:47:50.453Z,99498.44
2022-12-26T10:50:27.766Z,99499.71
2022-12-26T10:53:00.551Z,99499.05
2022-12-26T10:55:34.721Z,99496.41
2022-12-26T10:58:24.584Z,99492.45
2022-12-26T11:00:53.909Z,99493.59
2022-12-26T11:03:23.723Z,99489.52
2022-12-26T11:06:07.455Z,99476.52
2022-12-26T11:08:49.747Z,99478.20
2022-12-26T11:11:19.283Z,99481.66
2022-12-26T11:14:01.250Z,99479.59
2022-12-26T11:16:38.180Z,99476.36
2022-12-26T11:19:07.045Z,99476.55
2022-12-26T11:21:37.287Z,99474.06
2022-12-26T11:24:09.569Z,99478.32
2022-12-26T11:26:39.189Z,99473.92
2022-12-26T11:29:11.814Z,99474.27
2022-12-26T11:31:51.373Z,99477.92
2022-12-26T11:34:35.276Z,99478.36
2022-12-26T11:37:07.082Z,99476.45
2022-12-26T11:39:38.634Z,99473.05
2022-12-26T11:42:18.826Z,99465.21
2022-12-26T11:44:52.698Z,99470.65
2022-12-26T11:47:27.407Z,99470.85
2022-12-26T11:50:01.376Z,99476.79
2022-12-26T11:52:45.060Z,99472.18
2022-12-26T11:55:27.496Z,99470.73
2022-12-26T11:58:08.598Z,99463.80
2022-12-26T12:00:44.260Z,99469.84
2022-12-26T12:03:17.617Z,99466.34
2022-12-26T12:06:05.688Z,99466.27
2022-12-26T12:08:54.631Z,99466.33
2022-12-26T12:12:03.545Z,99464.17
2022-12-26T12:15:04.061Z,99465.95
2022-12-26T12:17:39.881Z,99472.59
2022-12-26T12:20:30.997Z,99470.29
2022-12-26T12:23:12.434Z,99469.55
2022-12-26T12:26:17.516Z,99469.38
2022-12-26T12:29:06.454Z,99473.52
2022-12-26T12:32:17.530Z,99473.60
2022-12-26T12:34:58.697Z,99478.10
2022-12-26T12:37:53.781Z,99484.20
2022-12-26T12:40:45.890Z,99481.77
2022-12-26T12:43:22.736Z,99485.73
2022-12-26T12:46:13.503Z,99491.75
2022-12-26T12:49:08.729Z,99496.27
2022-12-26T12:51:53.463Z,99490.21
2022-12-26T12:54:53.360Z,99491.34
2022-12-26T12:57:50.308Z,99488.89
2022-12-26T13:00:25.112Z,99494.66
2022-12-26T13:03:06.221Z,99496.52
2022-12-26T13:06:06.839Z,99499.67
2022-12-26T13:08:44.899Z,99501.20
2022-12-26T13:11:26.486Z,99497.69
2022-12-26T13:14:19.944Z,99491.29
2022-12-26T13:17:14.064Z,99491.28
2022-12-26T13:20:16.022Z,99489.20
2022-12-26T13:23:08.075Z,99490.02
2022-12-26T13:25:44.809Z,99494.92
2022-12-26T13:28:29.381Z,99496.14
2022-12-26T13:30:58.630Z,99487.52
2022-12-26T13:33:28.534Z,99490.54
2022-12-26T13:36:05.917Z,99493.35
2022-12-26T13:38:56.127Z,99495.08
2022-12-26T13:41:45.435Z,99501.34
2022-12-26T13:44:21.141Z,99501.59
2022-12-26T13:46:50.314Z,99509.69
2022-12-26T13:49:37.270Z,99514.69
2022-12-26T13:52:12.384Z,99521.20
2022-12-26T13:55:09.578Z,99525.05
2022-12-26T13:57:45.172Z,99527.48
2022-12-26T14:00:18.760Z,99531.39
2022-12-26T14:03:18.111Z,99526.08
2022-12-26T14:06:25.565Z,99529.57
2022-12-26T14:09:18.652Z,99535.93
2022-12-26T14:11:50.391Z,99535.08
2022-12-26T14:14:30.500Z,99537.75
2022-12-26T14:17:14.662Z,99538.38
2022-12-26T14:20:01.030Z,99539.63
2022-12-26T14:22:49.477Z,99542.44
2022-12-26T14:25:35.293Z,99547.55
2022-12-26T14:28:19.876Z,99551.05
2022-12-26T14:30:58.928Z,99552.38
2022-12-26T14:33:34.936Z,99548.45
2022-12-26T14:36:13.407Z,99551.72
2022-12-26T14:39:14.454Z,99552.98
2022-12-26T14:42:43.448Z,99546.64
2022-12-26T14:45:26.838Z,99536.43
2022-12-26T14:47:56.599Z,99536.77
2022-12-26T14:50:41.827Z,99544.08
2022-12-26T14:53:28.622Z,99538.39
2022-12-26T14:56:01.521Z,99545.52
2022-12-26T14:58:53.149Z,99549.38
2022-12-26T15:01:24.498Z,99551.79
2022-12-26T15:04:10.175Z,99554.59
2022-12-26T15:06:58.408Z,99554.12
2022-12-26T15:09:50.355Z,99556.27
2022-12-26T15:12:37.066Z,99556.55
2022-12-26T15:15:41.895Z,99557.39
2022-12-26T15:18:35.295Z,99546.04
2022-12-26T15:21:41.917Z,99540.95
2022-12-26T15:25:17.028Z,99533.98
2022-12-26T15:27:30.816Z,99533.30
2022-12-26T15:30:14.663Z,99523.62
2022-12-26T15:33:22.319Z,99526.13
2022-12-26T15:36:14.429Z,99526.97
2022-12-26T15:38:53.314Z,99533.45
2022-12-26T15:41:54.383Z,99535.59
2022-12-26T15:44:50.948Z,99539.52
2022-12-26T15:47:34.631Z,99538.63
2022-12-26T15:50:21.803Z,99536.45
2022-12-26T15:53:16.449Z,99540.14
2022-12-26T15:56:11.917Z,99542.09
2022-12-26T15:59:07.293Z,99549.64
2022-12-26T16:01:43.752Z,99556.14
2022-12-26T16:04:22.963Z,99557.52
2022-12-26T16:07:07.329Z,99561.14
2022-12-26T16:09:45.269Z,99563.33
2022-12-26T16:12:21.659Z,99559.92
2022-12-26T16:15:01.157Z,99561.98
2022-12-26T16:17:30.539Z,99561.75
2022-12-26T16:19:59.687Z,99559.54
2022-12-26T16:22:50.039Z,99554.77
2022-12-26T16:25:26.564Z,99555.06
2022-12-26T16:27:58.806Z,99550.11
2022-12-26T16:30:33.504Z,99547.92
2022-12-26T16:33:03.750Z,99541.67
2022-12-26T16:35:38.645Z,99542.68
2022-12-26T16:38:12.733Z,99548.93
2022-12-26T16:40:48.909Z,99542.95
2022-12-26T16:43:28.147Z,99550.50
2022-12-26T16:46:02.907Z,99546.02
2022-12-26T16:48:33.830Z,99544.64
2022-12-26T16:51:06.706Z,99545.84
2022-12-26T16:53:35.009Z,99552.17
2022-12-26T16:56:28.682Z,99562.23
2022-12-26T16:59:09.694Z,99568.54
2022-12-26T17:01:41.699Z,99567.00
2022-12-26T17:04:13.012Z,99562.59
2022-12-26T17:06:55.510Z,99557.83
2022-12-26T17:09:26.484Z,99560.52
2022-12-26T17:12:01.702Z,99557.60
2022-12-26T17:14:43.046Z,99559.16
2022-12-26T17:17:23.885Z,99552.40
2022-12-26T17:19:55.949Z,99553.89
2022-12-26T17:22:36.076Z,99560.32
2022-12-26T17:25:24.667Z,99565.93
2022-12-26T17:28:08.516Z,99561.90
2022-12-26T17:30:39.301Z,99565.75
2022-12-26T17:33:15.570Z,99569.58
2022-12-26T17:43:11.047Z,99579.05
2022-12-26T17:45:46.647Z,99580.52
2022-12-26T17:48:16.441Z,99583.08
2022-12-26T17:50:48.636Z,99586.05
2022-12-26T17:53:23.392Z,99593.60
2022-12-26T17:55:54.014Z,99593.24
2022-12-26T17:58:24.599Z,99591.19
2022-12-26T18:00:54.249Z,99596.02
2022-12-26T18:03:23.585Z,99596.55
2022-12-26T18:05:56.646Z,99597.00
2022-12-26T18:08:33.624Z,99609.21
2022-12-26T18:11:05.153Z,99606.11
2022-12-26T18:13:34.268Z,99608.11
2022-12-26T18:16:04.366Z,99609.41
2022-12-26T18:18:38.322Z,99608.64
2022-12-26T18:21:10.359Z,99616.98
2022-12-26T18:23:39.127Z,99616.58
2022-12-26T18:26:20.913Z,99615.97
2022-12-26T18:28:50.587Z,99619.66
2022-12-26T18:31:20.075Z,99621.47
2022-12-26T18:33:49.243Z,99615.81
2022-12-26T18:36:18.916Z,99608.80
2022-12-26T18:38:47.473Z,99611.48
2022-12-26T18:41:17.818Z,99615.66
2022-12-26T18:43:46.749Z,99617.23
2022-12-26T18:46:21.425Z,99615.31
2022-12-26T18:48:51.449Z,99616.04
2022-12-26T18:51:21.420Z,99614.59
2022-12-26T18:53:50.370Z,99612.77
2022-12-26T18:56:21.271Z,99611.35
2022-12-26T18:58:57.516Z,99606.52
2022-12-26T19:01:27.198Z,99605.27
2022-12-26T19:03:58.027Z,99608.45
2022-12-26T19:06:28.705Z,99610.41
2022-12-26T19:08:58.823Z,99609.42
2022-12-26T19:11:27.940Z,99612.79
2022-12-26T19:13:57.597Z,99610.54
2022-12-26T19:16:27.093Z,99610.11
2022-12-26T19:18:55.853Z,99609.52
2022-12-26T19:21:25.113Z,99605.98
2022-12-26T19:23:54.212Z,99609.08
2022-12-26T19:26:23.494Z,99614.56
2022-12-26T19:28:54.086Z,99618.31
2022-12-26T19:31:23.839Z,99617.17
2022-12-26T19:33:52.482Z,99623.02
2022-12-26T19:36:21.294Z,99617.80
2022-12-26T19:38:54.546Z,99615.88
2022-12-26T19:41:23.418Z,99612.92
2022-12-26T19:43:56.907Z,99612.61
2022-12-26T19:46:26.405Z,99612.35
2022-12-26T19:48:55.283Z,99613.25
2022-12-26T19:51:23.969Z,99614.59
2022-12-26T19:53:53.147Z,99615.66
2022-12-26T19:56:25.436Z,99621.84
2022-12-26T19:58:56.869Z,99625.39
2022-12-26T20:01:30.248Z,99627.24
2022-12-26T20:04:01.712Z,99631.25
2022-12-26T20:06:31.949Z,99628.96
2022-12-26T20:09:09.424Z,99626.10
2022-12-26T20:11:44.668Z,99625.22
2022-12-26T20:14:16.511Z,99617.20
2022-12-26T20:17:05.073Z,99616.75
2022-12-26T20:19:34.811Z,99619.05
2022-12-26T20:22:03.931Z,99617.95
2022-12-26T20:24:32.951Z,99622.67
2022-12-26T20:27:02.593Z,99620.42
2022-12-26T20:29:31.331Z,99618.11
2022-12-26T20:32:00.118Z,99627.09
2022-12-26T20:34:30.038Z,99625.00
2022-12-26T20:36:58.752Z,99621.83
2022-12-26T20:39:28.020Z,99624.69
2022-12-26T20:41:58.225Z,99625.61
2022-12-26T20:44:26.951Z,99625.86
2022-12-26T20:46:55.448Z,99623.78
2022-12-26T20:49:24.004Z,99625.22
2022-12-26T20:51:53.034Z,99627.48
2022-12-26T20:54:21.421Z,99630.33
2022-12-26T20:56:50.127Z,99632.98
2022-12-26T20:59:19.183Z,99635.56
2022-12-26T21:01:47.871Z,99633.45
2022-12-26T21:04:19.888Z,99632.74
2022-12-26T21:06:50.767Z,99635.88
2022-12-26T21:09:19.296Z,99631.41
2022-12-26T21:11:47.950Z,99629.36
2022-12-26T21:14:20.756Z,99626.08
2022-12-26T21:16:58.622Z,99630.79
2022-12-26T21:19:30.808Z,99631.34
2022-12-26T21:21:59.227Z,99625.61
2022-12-26T21:24:30.684Z,99624.52
2022-12-26T21:26:59.225Z,99624.02
2022-12-26T21:29:30.353Z,99628.14
2022-12-26T21:31:59.803Z,99631.40
2022-12-26T21:34:30.998Z,99628.96
2022-12-26T21:37:19.298Z,99628.70
2022-12-26T21:39:47.677Z,99630.55
2022-12-26T21:42:16.463Z,99631.46
2022-12-26T21:44:44.968Z,99636.89
2022-12-26T21:47:13.841Z,99635.02
2022-12-26T21:49:42.218Z,99642.09
2022-12-26T21:52:11.734Z,99647.53
2022-12-26T21:54:58.773Z,99648.23
2022-12-26T21:57:27.339Z,99644.52
2022-12-26T21:59:58.963Z,99644.21
2022-12-26T22:02:50.292Z,99643.84
2022-12-26T22:05:21.207Z,99644.48
2022-12-26T22:07:55.625Z,99645.73
2022-12-26T22:10:45.459Z,99647.20
2022-12-26T22:13:14.859Z,99647.27
2022-12-26T22:16:03.844Z,99645.55
2022-12-26T22:18:40.267Z,99648.23
2022-12-26T22:21:18.482Z,99646.46
2022-12-26T22:23:50.746Z,99645.61
2022-12-26T22:26:21.975Z,99645.23
2022-12-26T22:28:51.014Z,99642.42
2022-12-26T22:31:30.144Z,99643.24
2022-12-26T22:34:12.531Z,99650.64
2022-12-26T22:36:41.991Z,99645.34
2022-12-26T22:39:13.356Z,99651.35
2022-12-26T22:41:41.759Z,99655.66
2022-12-26T22:44:14.483Z,99657.67
2022-12-26T22:46:43.336Z,99653.98
2022-12-26T22:49:11.656Z,99650.52
2022-12-26T22:51:41.947Z,99655.36
2022-12-26T22:54:13.363Z,99656.40
2022-12-26T22:56:41.593Z,99657.41
2022-12-26T22:59:13.645Z,99661.20
2022-12-26T23:01:47.128Z,99665.31
2022-12-26T23:04:16.369Z,99666.39
2022-12-26T23:06:45.360Z,99662.08
2022-12-26T23:09:16.879Z,99664.74
2022-12-26T23:12:05.522Z,99659.63
2022-12-26T23:14:34.181Z,99657.30
2022-12-26T23:17:07.665Z,99656.55
2022-12-26T23:20:10.906Z,99657.79
2022-12-26T23:22:40.340Z,99656.40
2022-12-26T23:25:12.779Z,99651.67
2022-12-26T23:28:21.114Z,99653.38
2022-12-26T23:30:49.901Z,99651.48
2022-12-26T23:33:19.263Z,99653.64
2022-12-26T23:35:48.021Z,99653.77
2022-12-26T23:38:17.087Z,99660.77
2022-12-26T23:40:46.226Z,99668.41
2022-12-26T23:43:15.518Z,99674.60
2022-12-26T23:45:45.213Z,99674.20
2022-12-26T23:48:14.987Z,99680.55
2022-12-26T23:50:43.370Z,99680.45
2022-12-26T23:53:12.580Z,99678.86
2022-12-26T23:55:42.245Z,99675.30
2022-12-26T23:58:11.549Z,99676.91
